Time;durP1;ratioP1;P1;durP2;ratioP2;P2;SDS_P1;SDS_P2;PMS_P1;PMS_P2;Temp;Humidity;BMP_temperature;BMP_pressure;BME280_temperature;BME280_humidity;BME280_pressure;Samples;Min_cycle;Max_cycle;Signal;HPM_P1;HPM_P2
2024/04/14 00:01:14;;;;;;;15.47;2.30;;;19.40;1.00;;;;;;5451916;26;20516;-84
2024/04/14 00:03:40;;;;;;;14.90;2.57;;;19.50;1.00;;;;;;5484283;26;20454;-83
2024/04/14 00:06:06;;;;;;;14.80;2.43;;;19.60;1.00;;;;;;5451149;26;20740;-83
2024/04/14 00:08:31;;;;;;;15.00;3.10;;;19.50;1.00;;;;;;5483549;26;20434;-84
2024/04/14 00:10:57;;;;;;;13.83;2.40;;;19.50;1.00;;;;;;5482902;26;20311;-84
2024/04/14 00:13:23;;;;;;;15.20;2.83;;;19.50;1.00;;;;;;5483148;26;20208;-84
2024/04/14 00:15:57;;;;;;;20.20;2.90;;;19.50;1.00;;;;;;5451007;26;20503;-83
2024/04/14 00:18:23;;;;;;;16.83;2.57;;;19.50;1.00;;;;;;5451232;26;20985;-84
2024/04/14 00:20:48;;;;;;;14.73;2.57;;;19.50;1.00;;;;;;5482771;26;20505;-84
2024/04/14 00:23:15;;;;;;;17.90;2.67;;;19.40;1.00;;;;;;5483325;26;20213;-83
2024/04/14 00:25:42;;;;;;;18.30;2.70;;;19.40;1.00;;;;;;5483771;26;20210;-83
2024/04/14 00:28:08;;;;;;;15.40;2.70;;;19.40;1.00;;;;;;5483271;26;20440;-83
2024/04/14 00:30:33;;;;;;;17.43;3.67;;;19.40;1.00;;;;;;5450512;26;21113;-83
2024/04/14 00:32:59;;;;;;;14.63;3.00;;;19.40;1.00;;;;;;5483284;26;20220;-83
2024/04/14 00:35:25;;;;;;;15.73;3.03;;;19.40;1.00;;;;;;5482857;26;20288;-83
2024/04/14 00:37:51;;;;;;;14.30;2.40;;;19.30;1.00;;;;;;5450438;26;20246;-83
2024/04/14 00:40:17;;;;;;;15.50;3.40;;;19.20;1.00;;;;;;5481906;26;20461;-84
2024/04/14 00:42:44;;;;;;;14.20;2.47;;;19.20;1.00;;;;;;5482159;26;20633;-83
2024/04/14 00:45:10;;;;;;;14.10;2.60;;;19.20;1.00;;;;;;5483037;26;21035;-84
2024/04/14 00:47:36;;;;;;;15.90;3.33;;;19.20;1.00;;;;;;5450969;26;20448;-83
2024/04/14 00:50:03;;;;;;;20.60;2.50;;;19.00;1.00;;;;;;5451025;26;20483;-83
2024/04/14 00:52:29;;;;;;;14.17;2.30;;;19.00;1.00;;;;;;5450807;26;20453;-83
2024/04/14 00:54:55;;;;;;;15.47;2.00;;;18.90;1.00;;;;;;5482841;26;21094;-84
2024/04/14 00:57:22;;;;;;;13.40;1.73;;;18.80;1.00;;;;;;5482027;26;20755;-84
2024/04/14 00:59:49;;;;;;;13.20;1.73;;;18.90;1.00;;;;;;5482127;26;20462;-83
2024/04/14 01:02:14;;;;;;;12.70;1.67;;;18.90;1.00;;;;;;5482016;26;20492;-83
2024/04/14 01:04:40;;;;;;;13.57;2.03;;;18.90;1.00;;;;;;5450282;26;20446;-84
2024/04/14 01:07:06;;;;;;;14.83;1.50;;;18.80;1.00;;;;;;5450176;26;20208;-83
2024/04/14 01:09:31;;;;;;;13.97;1.50;;;18.70;1.00;;;;;;5481496;26;20204;-83
2024/04/14 01:11:57;;;;;;;12.87;1.60;;;18.70;1.00;;;;;;5482481;26;20251;-84
2024/04/14 01:14:23;;;;;;;13.20;1.67;;;18.70;1.00;;;;;;5450323;26;20696;-84
2024/04/14 01:16:49;;;;;;;13.67;1.87;;;18.70;1.00;;;;;;5449838;26;20270;-83
2024/04/14 01:19:14;;;;;;;12.97;1.50;;;18.70;1.00;;;;;;5450140;26;20454;-83
2024/04/14 01:21:40;;;;;;;14.20;1.40;;;18.70;1.00;;;;;;5450266;26;20266;-83
2024/04/14 01:24:05;;;;;;;16.70;1.47;;;18.60;1.00;;;;;;5482066;26;20688;-83
2024/04/14 01:26:31;;;;;;;13.67;1.33;;;18.50;1.00;;;;;;5482546;26;20654;-84
2024/04/14 01:28:57;;;;;;;13.73;1.53;;;18.50;1.00;;;;;;5453279;26;20226;-83
2024/04/14 01:31:22;;;;;;;14.67;2.67;;;18.50;1.00;;;;;;5452039;26;20235;-83
2024/04/14 01:33:50;;;;;;;13.70;1.83;;;18.50;1.00;;;;;;5423823;26;20291;-83
2024/04/14 01:36:15;;;;;;;13.00;1.80;;;18.40;1.00;;;;;;5453385;26;20212;-84
2024/04/14 01:38:41;;;;;;;14.80;1.70;;;18.40;1.00;;;;;;5452840;26;20497;-83
2024/04/14 01:41:06;;;;;;;14.70;1.73;;;18.50;1.00;;;;;;5452848;26;20231;-82
2024/04/14 01:43:33;;;;;;;13.20;1.60;;;18.40;1.00;;;;;;5485141;26;20672;-82
2024/04/14 01:45:59;;;;;;;14.07;2.17;;;18.40;1.00;;;;;;5490482;26;20209;-82
2024/04/14 01:48:25;;;;;;;13.37;1.63;;;18.30;1.00;;;;;;5458011;26;20445;-83
2024/04/14 01:50:50;;;;;;;16.33;2.07;;;18.20;1.00;;;;;;5459720;26;20224;-83
2024/04/14 01:53:19;;;;;;;15.90;1.77;;;18.10;1.00;;;;;;5487334;26;20490;-85
2024/04/14 01:55:46;;;;;;;14.23;1.70;;;18.00;1.00;;;;;;5490328;26;20449;-85
2024/04/14 01:58:45;;;;;;;13.77;1.50;;;18.00;1.00;;;;;;5492509;26;21050;-84
2024/04/14 02:01:11;;;;;;;12.63;1.40;;;18.00;1.00;;;;;;5456475;26;20461;-86
2024/04/14 02:03:41;;;;;;;12.60;1.50;;;17.90;99.90;;;;;;5488803;26;20438;-84
2024/04/14 02:06:07;;;;;;;12.77;1.33;;;17.90;99.90;;;;;;5486979;26;20587;-83
2024/04/14 02:08:33;;;;;;;13.20;1.47;;;17.80;99.90;;;;;;5454261;26;20441;-84
2024/04/14 02:11:02;;;;;;;14.40;1.70;;;17.70;99.90;;;;;;5484278;26;20498;-84
2024/04/14 02:13:28;;;;;;;12.60;1.30;;;17.60;99.90;;;;;;5484104;26;20252;-83
2024/04/14 02:15:54;;;;;;;15.70;1.53;;;17.60;99.90;;;;;;5484372;26;20788;-84
2024/04/14 02:18:19;;;;;;;12.87;1.20;;;17.60;99.90;;;;;;5452323;26;20216;-83
2024/04/14 02:20:45;;;;;;;12.97;1.33;;;17.60;99.90;;;;;;5483641;26;20239;-84
2024/04/14 02:23:11;;;;;;;12.10;1.20;;;17.60;99.90;;;;;;5452948;26;20228;-84
2024/04/14 02:25:36;;;;;;;13.40;1.57;;;17.50;99.90;;;;;;5484117;26;20209;-84
2024/04/14 02:28:03;;;;;;;13.40;1.47;;;17.50;99.90;;;;;;5452077;26;20213;-84
2024/04/14 02:30:28;;;;;;;14.30;1.40;;;17.50;99.90;;;;;;5484371;26;20292;-84
2024/04/14 02:32:54;;;;;;;14.93;1.60;;;17.50;99.90;;;;;;5452657;26;20446;-83
2024/04/14 02:35:20;;;;;;;12.17;1.17;;;17.50;99.90;;;;;;5452214;26;20724;-84
2024/04/14 02:37:45;;;;;;;13.83;1.40;;;17.60;99.90;;;;;;5483632;26;20208;-84
2024/04/14 02:40:12;;;;;;;12.17;1.30;;;17.60;99.90;;;;;;5451865;26;20253;-84
2024/04/14 02:42:37;;;;;;;12.73;1.37;;;17.50;99.90;;;;;;5452392;26;20761;-84
2024/04/14 02:45:04;;;;;;;14.80;1.60;;;17.50;99.90;;;;;;5452523;26;20434;-85
2024/04/14 02:47:29;;;;;;;14.40;1.63;;;17.40;99.90;;;;;;5483912;26;20426;-85
2024/04/14 02:49:55;;;;;;;13.43;1.57;;;17.30;99.90;;;;;;5452045;26;20558;-84
2024/04/14 02:52:21;;;;;;;12.60;1.20;;;17.20;99.90;;;;;;5484555;26;20204;-84
2024/04/14 02:54:47;;;;;;;13.30;1.20;;;17.20;99.90;;;;;;5483915;26;20437;-85
2024/04/14 02:57:13;;;;;;;13.63;1.53;;;17.30;99.90;;;;;;5484782;26;20257;-84
2024/04/14 02:59:39;;;;;;;12.80;1.97;;;17.20;99.90;;;;;;5483709;26;20254;-83
2024/04/14 03:02:05;;;;;;;12.20;1.27;;;17.20;99.90;;;;;;5451637;26;20446;-84
2024/04/14 03:04:31;;;;;;;12.60;1.20;;;17.20;99.90;;;;;;5483541;26;20247;-84
2024/04/14 03:06:56;;;;;;;14.30;1.27;;;17.30;99.90;;;;;;5483440;26;20445;-84
2024/04/14 03:09:22;;;;;;;13.20;1.50;;;17.30;99.90;;;;;;5451011;26;20221;-83
2024/04/14 03:11:48;;;;;;;12.80;1.20;;;17.30;99.90;;;;;;5483337;26;20280;-83
2024/04/14 03:14:16;;;;;;;11.97;1.27;;;17.20;99.90;;;;;;5451352;26;20217;-83
2024/04/14 03:16:42;;;;;;;12.73;1.17;;;17.10;99.90;;;;;;5483030;26;20264;-84
2024/04/14 03:19:07;;;;;;;12.57;1.40;;;17.10;99.90;;;;;;5451254;26;20563;-82
2024/04/14 03:21:33;;;;;;;13.97;1.40;;;17.10;99.90;;;;;;5483275;26;20450;-83
2024/04/14 03:23:59;;;;;;;17.70;1.43;;;17.10;99.90;;;;;;5482965;26;20272;-84
2024/04/14 03:26:24;;;;;;;13.57;1.47;;;17.10;99.90;;;;;;5450820;26;20208;-84
2024/04/14 03:28:50;;;;;;;12.43;1.17;;;17.10;99.90;;;;;;5482991;26;20251;-83
2024/04/14 03:31:16;;;;;;;12.40;1.00;;;17.10;99.90;;;;;;5451763;26;20686;-85
2024/04/14 03:33:41;;;;;;;13.93;1.40;;;17.10;99.90;;;;;;5483811;26;20543;-84
2024/04/14 03:36:07;;;;;;;14.73;1.63;;;17.10;99.90;;;;;;5483074;26;20441;-83
2024/04/14 03:38:34;;;;;;;15.27;2.57;;;17.00;99.90;;;;;;5483313;26;20249;-83
2024/04/14 03:40:59;;;;;;;12.07;1.10;;;17.10;99.90;;;;;;5483099;26;20457;-83
2024/04/14 03:43:25;;;;;;;12.73;1.60;;;17.00;99.90;;;;;;5484365;26;20486;-84
2024/04/14 03:45:51;;;;;;;13.20;1.50;;;17.00;99.90;;;;;;5450832;26;20240;-83
2024/04/14 03:48:17;;;;;;;14.60;1.40;;;16.90;99.90;;;;;;5483969;26;20259;-84
2024/04/14 03:50:45;;;;;;;14.23;1.90;;;16.90;99.90;;;;;;5450792;26;20592;-83
2024/04/14 03:53:11;;;;;;;13.90;1.37;;;16.90;99.90;;;;;;5451428;26;20254;-84
2024/04/14 03:55:36;;;;;;;16.90;1.47;;;16.90;99.90;;;;;;5481620;26;20517;-83
2024/04/14 03:58:02;;;;;;;14.37;1.50;;;16.80;99.90;;;;;;5450203;26;20216;-83
2024/04/14 04:00:28;;;;;;;12.60;1.43;;;16.80;99.90;;;;;;5482287;26;20240;-84
2024/04/14 04:02:54;;;;;;;12.87;1.40;;;16.80;99.90;;;;;;5450145;26;20265;-83
2024/04/14 04:05:20;;;;;;;14.73;1.67;;;16.80;99.90;;;;;;5450456;26;20312;-83
2024/04/14 04:07:48;;;;;;;12.80;1.47;;;16.80;99.90;;;;;;5482267;26;20966;-84
2024/04/14 04:10:14;;;;;;;13.70;1.50;;;16.70;99.90;;;;;;5450418;26;20225;-83
2024/04/14 04:12:41;;;;;;;13.33;1.50;;;16.80;99.90;;;;;;5450449;26;20437;-84
2024/04/14 04:15:07;;;;;;;14.00;1.70;;;16.80;99.90;;;;;;5450193;26;20445;-84
2024/04/14 04:17:33;;;;;;;12.20;1.23;;;16.80;99.90;;;;;;5482788;26;20919;-83
2024/04/14 04:19:58;;;;;;;16.40;2.00;;;16.80;99.90;;;;;;5481901;26;20216;-83
2024/04/14 04:22:24;;;;;;;12.50;1.20;;;16.70;99.90;;;;;;5450049;26;20257;-83
2024/04/14 04:24:50;;;;;;;14.30;1.30;;;16.70;99.90;;;;;;5482120;26;20594;-84
2024/04/14 04:27:16;;;;;;;13.37;1.43;;;16.70;99.90;;;;;;5450783;26;20239;-84
2024/04/14 04:29:42;;;;;;;14.63;1.97;;;16.60;99.90;;;;;;5482464;26;20200;-83
2024/04/14 04:32:09;;;;;;;13.73;2.00;;;16.60;99.90;;;;;;5481785;26;20486;-83
2024/04/14 04:34:34;;;;;;;17.47;1.40;;;16.50;99.90;;;;;;5481970;26;20434;-82
2024/04/14 04:37:00;;;;;;;15.80;1.70;;;16.50;99.90;;;;;;5482425;26;20271;-84
2024/04/14 04:39:26;;;;;;;13.10;1.43;;;16.50;99.90;;;;;;5481406;26;20677;-83
2024/04/14 04:41:51;;;;;;;12.60;1.60;;;16.50;99.90;;;;;;5449987;26;20212;-84
2024/04/14 04:44:17;;;;;;;13.03;1.30;;;16.40;99.90;;;;;;5482105;26;20217;-83
2024/04/14 04:46:43;;;;;;;13.00;1.50;;;16.50;99.90;;;;;;5449999;26;20216;-84
2024/04/14 04:49:08;;;;;;;18.60;1.80;;;16.50;1.00;;;;;;5449868;26;20562;-82
2024/04/14 04:51:34;;;;;;;12.50;1.67;;;16.40;1.00;;;;;;5481897;26;20786;-84
2024/04/14 04:54:00;;;;;;;15.10;1.50;;;16.40;1.00;;;;;;5450212;26;20216;-84
2024/04/14 04:56:25;;;;;;;13.20;1.90;;;16.40;1.00;;;;;;5481906;26;20228;-84
2024/04/14 04:58:51;;;;;;;14.13;1.47;;;16.40;1.00;;;;;;5481460;26;20205;-84
2024/04/14 05:01:17;;;;;;;14.37;1.90;;;16.30;1.00;;;;;;5481174;26;20247;-83
2024/04/14 05:03:42;;;;;;;14.40;1.50;;;16.30;1.00;;;;;;5449460;26;20604;-83
2024/04/14 05:06:08;;;;;;;14.70;1.70;;;16.30;1.00;;;;;;5479746;26;20434;-83
2024/04/14 05:08:34;;;;;;;15.13;1.77;;;16.30;1.00;;;;;;5448943;26;20666;-83
2024/04/14 05:11:00;;;;;;;13.10;1.57;;;16.30;1.00;;;;;;5449437;26;20693;-83
2024/04/14 05:13:26;;;;;;;15.27;1.43;;;16.30;1.00;;;;;;5481312;26;20205;-82
2024/04/14 05:15:53;;;;;;;12.80;1.33;;;16.20;1.00;;;;;;5448951;26;20846;-82
2024/04/14 05:18:19;;;;;;;13.47;1.43;;;16.20;1.00;;;;;;5481367;26;20510;-84
2024/04/14 05:20:45;;;;;;;14.50;1.20;;;16.20;1.00;;;;;;5480986;26;20986;-82
2024/04/14 05:23:10;;;;;;;20.13;2.40;;;16.30;1.00;;;;;;5449285;26;20213;-84
2024/04/14 05:25:37;;;;;;;13.77;1.70;;;16.30;1.00;;;;;;5481242;26;20438;-82
2024/04/14 05:28:03;;;;;;;14.70;1.70;;;16.20;1.00;;;;;;5481453;26;20224;-84
2024/04/14 05:30:29;;;;;;;16.53;1.97;;;16.20;1.00;;;;;;5481759;26;20454;-84
2024/04/14 05:32:56;;;;;;;16.40;1.97;;;16.20;1.00;;;;;;5450251;26;20442;-84
2024/04/14 05:35:22;;;;;;;22.90;2.30;;;16.20;1.00;;;;;;5450325;26;20482;-84
2024/04/14 05:37:48;;;;;;;18.53;2.57;;;16.30;1.00;;;;;;5481586;26;20434;-84
2024/04/14 05:40:14;;;;;;;16.87;2.70;;;16.30;1.00;;;;;;5481611;26;20454;-84
2024/04/14 05:42:39;;;;;;;13.60;2.00;;;16.40;1.00;;;;;;5481171;26;20204;-83
2024/04/14 05:45:08;;;;;;;16.87;1.77;;;16.40;1.00;;;;;;5480599;26;20204;-84
2024/04/14 05:47:34;;;;;;;16.67;3.10;;;16.40;1.00;;;;;;5448291;26;20228;-83
2024/04/14 05:49:59;;;;;;;13.60;2.03;;;16.40;1.00;;;;;;5480519;26;20569;-83
2024/04/14 05:52:25;;;;;;;14.90;2.13;;;16.50;1.00;;;;;;5481015;26;20543;-84
2024/04/14 05:54:53;;;;;;;14.13;1.87;;;16.50;1.00;;;;;;5480316;26;20301;-83
2024/04/14 05:57:19;;;;;;;15.23;2.07;;;16.50;1.00;;;;;;5481220;26;20209;-83
2024/04/14 05:59:45;;;;;;;25.83;2.80;;;16.50;1.00;;;;;;5481104;26;20517;-84
2024/04/14 06:02:11;;;;;;;14.37;2.53;;;16.40;1.00;;;;;;5449416;26;20285;-83
2024/04/14 06:04:38;;;;;;;16.63;2.37;;;16.50;1.00;;;;;;5481163;26;20433;-83
2024/04/14 06:07:03;;;;;;;18.73;2.50;;;16.40;1.00;;;;;;5481771;26;20488;-85
2024/04/14 06:09:29;;;;;;;14.20;1.90;;;16.40;1.00;;;;;;5482195;26;20438;-84
2024/04/14 06:11:55;;;;;;;16.13;2.40;;;16.50;1.00;;;;;;5482015;26;20301;-84
2024/04/14 06:14:22;;;;;;;18.33;2.70;;;16.50;1.00;;;;;;5451122;26;20243;-84
2024/04/14 06:16:48;;;;;;;14.80;2.13;;;16.60;1.00;;;;;;5483083;26;20204;-84
2024/04/14 06:19:14;;;;;;;15.27;2.40;;;16.40;1.00;;;;;;5455440;26;20544;-84
2024/04/14 06:21:43;;;;;;;16.47;2.30;;;16.40;1.00;;;;;;5455480;26;20610;-84
2024/04/14 06:24:09;;;;;;;14.50;2.20;;;16.50;1.00;;;;;;5486819;26;20433;-84
2024/04/14 06:26:35;;;;;;;16.30;2.47;;;16.50;1.00;;;;;;5451168;26;20434;-82
2024/04/14 06:29:00;;;;;;;16.00;2.20;;;16.50;1.00;;;;;;5484333;26;20220;-84
2024/04/14 06:31:26;;;;;;;16.90;2.73;;;16.50;1.00;;;;;;5484737;26;20243;-84
2024/04/14 06:33:52;;;;;;;17.80;2.90;;;16.50;1.00;;;;;;5452699;26;20212;-84
2024/04/14 06:36:18;;;;;;;19.53;2.57;;;16.50;1.00;;;;;;5452601;26;20673;-84
2024/04/14 06:38:44;;;;;;;18.10;3.13;;;16.60;1.00;;;;;;5484472;26;20250;-83
2024/04/14 06:41:13;;;;;;;17.50;2.60;;;16.60;1.00;;;;;;5484318;26;20597;-84
2024/04/14 06:43:39;;;;;;;16.07;2.70;;;16.50;1.00;;;;;;5484521;26;20437;-84
2024/04/14 06:46:05;;;;;;;17.50;2.40;;;16.50;1.00;;;;;;5452548;26;20548;-83
2024/04/14 06:48:31;;;;;;;16.17;2.83;;;16.50;1.00;;;;;;5483957;26;20543;-84
2024/04/14 06:50:57;;;;;;;16.97;3.10;;;16.60;1.00;;;;;;5451005;26;20469;-83
2024/04/14 06:53:23;;;;;;;21.33;2.83;;;16.70;1.00;;;;;;5484535;26;20430;-83
2024/04/14 06:56:00;;;;;;;17.37;2.37;;;16.60;1.00;;;;;;5450885;26;20788;-83
2024/04/14 06:58:25;;;;;;;19.50;2.50;;;16.60;1.00;;;;;;5482894;26;20173;-84
2024/04/14 07:00:51;;;;;;;16.27;3.00;;;16.60;1.00;;;;;;5483502;26;20502;-83
2024/04/14 07:03:17;;;;;;;18.53;2.83;;;16.40;1.00;;;;;;5483787;26;20208;-83
2024/04/14 07:05:42;;;;;;;20.43;3.30;;;16.60;1.00;;;;;;5484568;26;20685;-83
2024/04/14 07:08:08;;;;;;;15.93;3.20;;;16.60;1.00;;;;;;5482968;26;20208;-83
2024/04/14 07:10:35;;;;;;;15.40;2.30;;;16.60;1.00;;;;;;5450453;26;20777;-84
2024/04/14 07:13:01;;;;;;;25.20;3.47;;;16.70;1.00;;;;;;5482924;26;20509;-84
2024/04/14 07:15:26;;;;;;;15.07;2.73;;;16.80;1.00;;;;;;5483239;26;20429;-84
2024/04/14 07:17:52;;;;;;;21.63;3.53;;;16.80;1.00;;;;;;5484797;26;20208;-85
2024/04/14 07:20:18;;;;;;;20.80;3.40;;;16.80;1.00;;;;;;5484630;26;20212;-84
2024/04/14 07:22:47;;;;;;;14.27;2.47;;;16.80;1.00;;;;;;5485116;26;20212;-86
2024/04/14 07:25:12;;;;;;;15.67;2.70;;;16.80;1.00;;;;;;5486252;26;20208;-84
2024/04/14 07:27:38;;;;;;;15.70;2.63;;;16.90;1.00;;;;;;5452931;26;20854;-84
2024/04/14 07:30:05;;;;;;;19.13;3.23;;;16.90;1.00;;;;;;5451537;26;20255;-84
2024/04/14 07:32:30;;;;;;;17.37;2.43;;;16.90;1.00;;;;;;5452834;26;20272;-84
2024/04/14 07:34:56;;;;;;;17.93;2.77;;;16.90;1.00;;;;;;5483815;26;21030;-84
2024/04/14 07:37:22;;;;;;;17.17;2.90;;;16.80;1.00;;;;;;5484010;26;20489;-85
2024/04/14 07:39:47;;;;;;;17.60;2.80;;;16.90;1.00;;;;;;5484081;26;20221;-85
2024/04/14 07:42:13;;;;;;;20.07;3.10;;;16.70;1.00;;;;;;5451808;26;20289;-85
2024/04/14 07:44:39;;;;;;;19.40;2.90;;;16.80;1.00;;;;;;5483580;26;20565;-84
2024/04/14 07:47:05;;;;;;;17.47;3.40;;;16.80;1.00;;;;;;5484426;26;20673;-84
2024/04/14 07:49:30;;;;;;;14.90;3.27;;;16.80;1.00;;;;;;5451169;26;20220;-85
2024/04/14 07:51:56;;;;;;;17.33;2.87;;;16.80;1.00;;;;;;5451566;26;20216;-85
2024/04/14 07:54:21;;;;;;;16.73;3.20;;;16.80;1.00;;;;;;5491111;26;20221;-86
2024/04/14 07:56:47;;;;;;;15.33;2.70;;;16.80;1.00;;;;;;5524190;21;20336;-84
2024/04/14 07:59:13;;;;;;;18.40;3.33;;;16.70;1.00;;;;;;5446761;26;20639;-83
2024/04/14 08:01:38;;;;;;;16.87;2.67;;;16.70;1.00;;;;;;5448851;26;20240;-83
2024/04/14 08:04:04;;;;;;;14.30;2.53;;;16.70;1.00;;;;;;5446719;26;20270;-84
2024/04/14 08:06:31;;;;;;;15.40;2.40;;;16.70;1.00;;;;;;5448671;26;20249;-84
2024/04/14 08:08:57;;;;;;;15.00;2.80;;;16.80;1.00;;;;;;5446972;26;20213;-83
2024/04/14 08:11:24;;;;;;;16.00;2.60;;;16.80;1.00;;;;;;5446464;26;20499;-82
2024/04/14 08:13:49;;;;;;;25.13;3.13;;;16.90;1.00;;;;;;5446146;26;20498;-83
2024/04/14 08:16:15;;;;;;;19.40;3.03;;;17.00;1.00;;;;;;5448449;26;20431;-83
2024/04/14 08:18:41;;;;;;;20.40;3.20;;;17.10;1.00;;;;;;5446699;26;20265;-84
2024/04/14 08:21:07;;;;;;;18.10;3.20;;;17.10;1.00;;;;;;5448151;26;20213;-84
2024/04/14 08:23:32;;;;;;;17.47;3.33;;;17.20;1.00;;;;;;5448158;26;20666;-84
2024/04/14 08:26:01;;;;;;;17.93;2.70;;;17.30;1.00;;;;;;5447663;26;20202;-83
2024/04/14 08:28:28;;;;;;;22.03;3.20;;;17.30;1.00;;;;;;5446074;26;20209;-83
2024/04/14 08:30:53;;;;;;;19.70;3.00;;;17.20;1.00;;;;;;5445709;26;21023;-83
2024/04/14 08:33:19;;;;;;;17.17;2.90;;;17.20;1.00;;;;;;5445265;26;20515;-83
2024/04/14 08:35:45;;;;;;;19.90;2.97;;;17.20;1.00;;;;;;5445266;26;20706;-83
2024/04/14 08:38:10;;;;;;;17.00;3.20;;;17.10;1.00;;;;;;5445583;26;20206;-82
2024/04/14 08:40:36;;;;;;;19.93;4.00;;;17.00;1.00;;;;;;5443303;26;20259;-83
2024/04/14 08:43:02;;;;;;;16.37;2.93;;;16.90;1.00;;;;;;5446111;26;20488;-83
2024/04/14 08:45:29;;;;;;;23.53;3.90;;;16.90;1.00;;;;;;5445479;26;20209;-83
2024/04/14 08:47:55;;;;;;;22.20;4.30;;;16.90;1.00;;;;;;5445486;26;20256;-83
2024/04/14 08:50:23;;;;;;;16.80;3.00;;;17.00;1.00;;;;;;5443217;26;20470;-83
2024/04/14 08:52:49;;;;;;;15.97;3.00;;;17.00;1.00;;;;;;5443413;26;21080;-83
2024/04/14 08:55:15;;;;;;;18.13;3.27;;;17.10;1.00;;;;;;5444981;26;20568;-83
2024/04/14 08:57:41;;;;;;;19.57;3.17;;;17.10;1.00;;;;;;5413476;26;20462;-83
2024/04/14 09:00:16;;;;;;;14.63;3.10;;;17.10;1.00;;;;;;5442833;26;20528;-83
2024/04/14 09:02:42;;;;;;;15.80;2.90;;;17.00;1.00;;;;;;5443669;26;20947;-83
2024/04/14 09:05:12;;;;;;;17.93;3.70;;;17.00;1.00;;;;;;5445093;26;20552;-83
2024/04/14 09:07:39;;;;;;;17.43;2.90;;;17.10;1.00;;;;;;5446268;26;20392;-83
2024/04/14 09:10:05;;;;;;;14.87;2.10;;;17.30;1.00;;;;;;5443210;26;20478;-83
2024/04/14 09:12:31;;;;;;;17.37;2.90;;;17.40;1.00;;;;;;5443748;26;20490;-84
2024/04/14 09:14:57;;;;;;;14.10;2.30;;;17.50;1.00;;;;;;5446962;26;20492;-84
2024/04/14 09:17:23;;;;;;;13.70;2.70;;;17.60;1.00;;;;;;5449833;26;20498;-84
2024/04/14 09:19:49;;;;;;;15.13;2.60;;;17.60;1.00;;;;;;5446440;26;20301;-84
2024/04/14 09:22:18;;;;;;;14.30;2.10;;;17.60;1.00;;;;;;5447876;26;20447;-84
2024/04/14 09:24:43;;;;;;;14.43;2.20;;;17.70;1.00;;;;;;5447725;26;20593;-85
2024/04/14 09:27:09;;;;;;;20.70;2.47;;;17.80;1.00;;;;;;5446438;26;20439;-84
2024/04/14 09:29:35;;;;;;;22.40;2.83;;;17.80;1.00;;;;;;5448901;26;20521;-84
2024/04/14 09:32:02;;;;;;;14.57;2.17;;;17.80;1.00;;;;;;5448273;26;20388;-84
2024/04/14 09:34:28;;;;;;;16.80;2.27;;;17.80;1.00;;;;;;5448060;26;20494;-84
2024/04/14 09:36:53;;;;;;;16.20;2.53;;;17.80;1.00;;;;;;5445622;26;20551;-84
2024/04/14 09:39:19;;;;;;;14.87;2.63;;;17.70;1.00;;;;;;5447846;26;20747;-84
2024/04/14 09:41:45;;;;;;;16.77;2.53;;;17.80;1.00;;;;;;5447870;26;20252;-84
2024/04/14 09:44:12;;;;;;;16.13;2.30;;;17.90;1.00;;;;;;5446071;26;20447;-84
2024/04/14 09:46:38;;;;;;;17.73;2.73;;;18.00;1.00;;;;;;5447341;26;20504;-83
2024/04/14 09:49:07;;;;;;;17.73;1.87;;;18.10;99.90;;;;;;5447839;26;20882;-83
2024/04/14 09:51:35;;;;;;;18.13;2.67;;;18.10;1.00;;;;;;5445696;26;20470;-83
2024/04/14 09:54:02;;;;;;;16.70;1.57;;;18.10;99.90;;;;;;5451015;26;20435;-84
2024/04/14 09:56:30;;;;;;;15.63;1.40;;;17.90;99.90;;;;;;5449619;26;20459;-84
2024/04/14 09:58:56;;;;;;;14.27;2.00;;;17.90;99.90;;;;;;5450476;26;20524;-83
2024/04/14 10:01:29;;;;;;;18.70;2.40;;;18.00;99.90;;;;;;5450014;26;20543;-83
2024/04/14 10:04:01;;;;;;;13.00;1.33;;;18.20;99.90;;;;;;5449985;26;20431;-83
2024/04/14 10:06:28;;;;;;;12.87;1.47;;;18.40;99.90;;;;;;5447814;26;20395;-83
2024/04/14 10:08:56;;;;;;;13.10;1.50;;;18.50;99.90;;;;;;5447767;26;20495;-83
2024/04/14 10:11:25;;;;;;;14.67;1.70;;;18.40;99.90;;;;;;5445362;26;20470;-83
2024/04/14 10:13:55;;;;;;;14.50;1.53;;;18.40;99.90;;;;;;5445361;26;20438;-83
2024/04/14 10:16:22;;;;;;;18.20;2.10;;;18.50;99.90;;;;;;5445206;26;20496;-83
2024/04/14 10:18:49;;;;;;;16.30;1.50;;;18.60;99.90;;;;;;5447046;26;20897;-83
2024/04/14 10:21:20;;;;;;;16.63;2.17;;;18.80;99.90;;;;;;5447184;26;20567;-83
2024/04/14 10:23:52;;;;;;;13.80;1.47;;;19.10;99.90;;;;;;5447099;26;20443;-83
2024/04/14 10:26:18;;;;;;;19.20;2.10;;;19.20;99.90;;;;;;5447526;26;20394;-83
2024/04/14 10:28:54;;;;;;;14.70;1.70;;;19.30;99.90;;;;;;5446358;26;20461;-83
2024/04/14 10:31:30;;;;;;;13.63;1.50;;;19.50;99.90;;;;;;5447567;26;20459;-83
2024/04/14 10:34:02;;;;;;;14.60;1.43;;;19.60;99.90;;;;;;5447447;26;20780;-83
2024/04/14 10:36:28;;;;;;;14.40;1.57;;;19.80;99.90;;;;;;5445745;26;20450;-83
2024/04/14 10:38:54;;;;;;;13.47;1.33;;;19.80;99.90;;;;;;5445576;26;20451;-84
2024/04/14 10:41:22;;;;;;;14.63;2.03;;;19.70;99.90;;;;;;5445866;26;20277;-83
2024/04/14 10:43:47;;;;;;;12.43;1.20;;;19.60;99.90;;;;;;5445590;26;20277;-83
2024/04/14 10:46:13;;;;;;;15.90;1.40;;;19.40;99.90;;;;;;5447183;26;20963;-83
2024/04/14 10:48:46;;;;;;;12.90;1.27;;;19.30;99.90;;;;;;5447898;26;20213;-83
2024/04/14 10:51:11;;;;;;;12.97;1.30;;;19.40;99.90;;;;;;5447452;26;20219;-83
2024/04/14 10:53:37;;;;;;;15.50;1.70;;;19.70;99.90;;;;;;5451856;26;20495;-83
2024/04/14 10:56:04;;;;;;;16.17;1.80;;;19.60;99.90;;;;;;5449434;26;20349;-83
2024/04/14 10:58:30;;;;;;;15.63;1.50;;;19.30;99.90;;;;;;5450602;26;20478;-84
2024/04/14 11:00:56;;;;;;;15.33;1.80;;;19.40;99.90;;;;;;5450394;26;20520;-84
2024/04/14 11:03:23;;;;;;;13.80;2.00;;;19.30;99.90;;;;;;5448354;26;20497;-84
2024/04/14 11:05:50;;;;;;;14.37;1.67;;;19.30;99.90;;;;;;5447917;26;20459;-84
2024/04/14 11:08:16;;;;;;;14.73;2.13;;;19.10;99.90;;;;;;5450214;26;20439;-84
2024/04/14 11:10:43;;;;;;;12.70;1.60;;;19.30;99.90;;;;;;5449897;26;20458;-84
2024/04/14 11:13:15;;;;;;;14.87;1.80;;;19.30;99.90;;;;;;5449799;26;20494;-84
2024/04/14 11:15:42;;;;;;;17.53;1.83;;;19.30;99.90;;;;;;5450281;26;20784;-84
2024/04/14 11:18:08;;;;;;;12.63;1.60;;;19.30;99.90;;;;;;5447618;26;20451;-84
2024/04/14 11:20:35;;;;;;;16.07;2.60;;;19.30;99.90;;;;;;5450168;26;20868;-84
2024/04/14 11:23:05;;;;;;;13.90;2.03;;;19.30;99.90;;;;;;5449562;26;20450;-84
2024/04/14 11:25:31;;;;;;;13.30;1.60;;;19.40;99.90;;;;;;5448286;26;20520;-84
2024/04/14 11:27:57;;;;;;;15.07;1.70;;;19.40;99.90;;;;;;5448195;26;20458;-83
2024/04/14 11:30:29;;;;;;;16.80;2.50;;;19.50;99.90;;;;;;5448788;26;20451;-84
2024/04/14 11:32:57;;;;;;;16.17;2.50;;;19.40;99.90;;;;;;5447455;26;20244;-84
2024/04/14 11:35:23;;;;;;;13.90;2.47;;;19.40;99.90;;;;;;5447494;26;20532;-84
2024/04/14 11:37:52;;;;;;;16.77;2.77;;;19.50;99.90;;;;;;5446808;26;20546;-83
2024/04/14 11:40:21;;;;;;;14.97;2.13;;;19.50;99.90;;;;;;5448521;26;20459;-84
2024/04/14 11:42:50;;;;;;;15.40;2.60;;;19.50;99.90;;;;;;5446688;26;20502;-84
2024/04/14 11:45:16;;;;;;;13.17;1.83;;;19.60;99.90;;;;;;5446922;26;20446;-83
2024/04/14 11:47:42;;;;;;;15.07;2.37;;;19.70;99.90;;;;;;5447126;26;21023;-83
2024/04/14 11:50:08;;;;;;;14.93;2.50;;;19.70;99.90;;;;;;5444545;26;20529;-84
2024/04/14 11:52:34;;;;;;;15.17;3.00;;;19.70;99.90;;;;;;5446489;26;20439;-83
2024/04/14 11:55:05;;;;;;;15.57;2.70;;;19.70;99.90;;;;;;5444431;26;20506;-83
2024/04/14 11:57:30;;;;;;;15.37;2.60;;;19.80;99.90;;;;;;5446782;26;20212;-83
2024/04/14 11:59:56;;;;;;;19.27;2.30;;;19.90;99.90;;;;;;5444596;26;20935;-83
2024/04/14 12:02:22;;;;;;;19.13;2.90;;;20.00;99.90;;;;;;5446830;26;20206;-84
2024/04/14 12:04:49;;;;;;;13.90;2.80;;;20.10;99.90;;;;;;5444532;26;20509;-83
2024/04/14 12:07:15;;;;;;;18.07;2.77;;;20.10;99.90;;;;;;5446356;26;20205;-83
2024/04/14 12:09:41;;;;;;;16.13;2.30;;;20.50;99.90;;;;;;5446318;26;21007;-83
2024/04/14 12:12:06;;;;;;;12.80;2.10;;;20.60;99.90;;;;;;5446235;26;20705;-83
2024/04/14 12:14:32;;;;;;;15.50;2.60;;;20.70;99.90;;;;;;5445786;26;20682;-83
2024/04/14 12:16:59;;;;;;;14.33;2.17;;;20.70;99.90;;;;;;5443293;26;20556;-83
2024/04/14 12:19:25;;;;;;;18.83;2.47;;;20.80;99.90;;;;;;5445830;26;20210;-83
2024/04/14 12:21:51;;;;;;;14.33;2.50;;;20.60;99.90;;;;;;5443866;26;20494;-83
2024/04/14 12:24:17;;;;;;;13.50;2.30;;;20.70;99.90;;;;;;5445917;26;20947;-83
2024/04/14 12:26:44;;;;;;;22.53;2.57;;;20.60;99.90;;;;;;5444261;26;20236;-83
2024/04/14 12:29:10;;;;;;;13.80;2.03;;;20.50;99.90;;;;;;5447818;26;20483;-84
2024/04/14 12:31:36;;;;;;;20.20;2.93;;;20.20;99.90;;;;;;5449435;26;20451;-84
2024/04/14 12:34:02;;;;;;;14.57;2.13;;;20.10;99.90;;;;;;5448812;26;20439;-84
2024/04/14 12:36:27;;;;;;;15.50;2.23;;;20.10;99.90;;;;;;5448482;26;20489;-84
2024/04/14 12:38:53;;;;;;;14.90;2.43;;;20.00;99.90;;;;;;5448429;26;20506;-84